Mandalay, Burma
Current Conditions -  °F | °C
As of 5:30 PM on Monday 24 Nov 2014 (Local Time) from VYMD Reporting Station
Clear Clear  
Wind Chill: 75°   Ceiling: Unl
Heat Index: 75°   Visibility: 4mi
Dew Point: 68°   Wind: 0mph
Humidity: 78%   Direction: NA
Pressure: 29.85"   Gusts: NA
Location:  21.98°N, 96.09°E
Report Text: VYMD 241130Z 00000KT 6000 NSC 24/20 Q1011 NOSIG
Loading
Personal Weather Stations






























Interactive Weather Map New forecast layout! Learn more

10-Day Weather Forecast

Advertisements
Track Severe Weather on mobile